sensor_id;sensor_type;location;lat;lon;timestamp;pressure;altitude;pressure_sealevel;temperature;humidity
50790;BME280;37287;47.554;7.844;2023-08-06T00:02:24;97285.53;;;15.43;100.00
50790;BME280;37287;47.554;7.844;2023-08-06T00:05:16;97282.97;;;15.36;100.00
50790;BME280;37287;47.554;7.844;2023-08-06T00:08:11;97284.09;;;15.38;100.00
50790;BME280;37287;47.554;7.844;2023-08-06T00:10:40;97277.94;;;15.34;100.00
50790;BME280;37287;47.554;7.844;2023-08-06T00:13:07;97275.63;;;15.33;100.00
50790;BME280;37287;47.554;7.844;2023-08-06T00:16:09;97278.00;;;15.30;100.00
50790;BME280;37287;47.554;7.844;2023-08-06T00:18:59;97274.84;;;15.32;100.00
50790;BME280;37287;47.554;7.844;2023-08-06T00:21:50;97267.50;;;15.29;100.00
50790;BME280;37287;47.554;7.844;2023-08-06T00:24:41;97265.97;;;15.28;100.00
50790;BME280;37287;47.554;7.844;2023-08-06T00:27:32;97256.00;;;15.21;100.00
50790;BME280;37287;47.554;7.844;2023-08-06T00:30:22;97243.19;;;15.18;100.00
50790;BME280;37287;47.554;7.844;2023-08-06T00:33:15;97249.06;;;15.17;99.68
50790;BME280;37287;47.554;7.844;2023-08-06T00:35:47;97247.47;;;15.19;98.06
50790;BME280;37287;47.554;7.844;2023-08-06T00:38:13;97243.88;;;15.22;97.62
50790;BME280;37287;47.554;7.844;2023-08-06T00:40:40;97239.91;;;15.27;97.96
50790;BME280;37287;47.554;7.844;2023-08-06T00:43:07;97235.63;;;15.26;97.71
50790;BME280;37287;47.554;7.844;2023-08-06T00:45:36;97234.53;;;15.23;98.31
50790;BME280;37287;47.554;7.844;2023-08-06T00:48:27;97242.38;;;15.21;98.28
50790;BME280;37287;47.554;7.844;2023-08-06T00:51:18;97229.97;;;15.17;98.33
50790;BME280;37287;47.554;7.844;2023-08-06T00:53:46;97233.97;;;15.12;98.49
50790;BME280;37287;47.554;7.844;2023-08-06T00:56:37;97234.31;;;15.14;98.47
50790;BME280;37287;47.554;7.844;2023-08-06T00:59:29;97237.03;;;15.14;98.69
50790;BME280;37287;47.554;7.844;2023-08-06T01:02:21;97236.28;;;15.13;98.48
50790;BME280;37287;47.554;7.844;2023-08-06T01:05:37;97235.09;;;15.15;99.05
50790;BME280;37287;47.554;7.844;2023-08-06T01:08:49;97233.91;;;15.16;98.86
50790;BME280;37287;47.554;7.844;2023-08-06T01:15:01;97241.31;;;15.15;98.59
50790;BME280;37287;47.554;7.844;2023-08-06T01:17:55;97228.38;;;15.19;97.46
50790;BME280;37287;47.554;7.844;2023-08-06T01:20:45;97220.13;;;15.23;97.44
50790;BME280;37287;47.554;7.844;2023-08-06T01:23:36;97220.03;;;15.26;96.98
50790;BME280;37287;47.554;7.844;2023-08-06T01:29:32;97209.81;;;15.30;96.82
50790;BME280;37287;47.554;7.844;2023-08-06T01:32:25;97214.09;;;15.32;96.32
50790;BME280;37287;47.554;7.844;2023-08-06T01:35:19;97223.41;;;15.34;96.32
50790;BME280;37287;47.554;7.844;2023-08-06T01:38:09;97225.75;;;15.32;96.66
50790;BME280;37287;47.554;7.844;2023-08-06T01:41:01;97228.16;;;15.30;97.35
50790;BME280;37287;47.554;7.844;2023-08-06T01:43:51;97225.50;;;15.26;97.09
50790;BME280;37287;47.554;7.844;2023-08-06T01:46:43;97218.09;;;15.27;97.63
50790;BME280;37287;47.554;7.844;2023-08-06T01:49:33;97217.66;;;15.28;97.65
50790;BME280;37287;47.554;7.844;2023-08-06T01:52:24;97224.31;;;15.27;97.99
50790;BME280;37287;47.554;7.844;2023-08-06T01:55:17;97218.09;;;15.27;97.40
50790;BME280;37287;47.554;7.844;2023-08-06T01:58:08;97212.22;;;15.28;96.87
50790;BME280;37287;47.554;7.844;2023-08-06T02:01:02;97210.19;;;15.33;96.31
50790;BME280;37287;47.554;7.844;2023-08-06T02:03:52;97217.94;;;15.34;96.85
50790;BME280;37287;47.554;7.844;2023-08-06T02:06:44;97218.38;;;15.33;95.92
50790;BME280;37287;47.554;7.844;2023-08-06T02:09:34;97211.69;;;15.34;95.67
50790;BME280;37287;47.554;7.844;2023-08-06T02:12:25;97213.66;;;15.33;95.88
50790;BME280;37287;47.554;7.844;2023-08-06T02:14:56;97207.78;;;15.35;94.54
50790;BME280;37287;47.554;7.844;2023-08-06T02:17:24;97206.88;;;15.41;94.60
50790;BME280;37287;47.554;7.844;2023-08-06T02:20:16;97210.72;;;15.44;94.64
50790;BME280;37287;47.554;7.844;2023-08-06T02:22:43;97212.22;;;15.45;94.36
50790;BME280;37287;47.554;7.844;2023-08-06T02:25:33;97199.63;;;15.51;93.40
50790;BME280;37287;47.554;7.844;2023-08-06T02:28:23;97195.88;;;15.61;92.90
50790;BME280;37287;47.554;7.844;2023-08-06T02:31:15;97202.34;;;15.68;91.99
50790;BME280;37287;47.554;7.844;2023-08-06T02:34:07;97193.31;;;15.71;92.30
50790;BME280;37287;47.554;7.844;2023-08-06T02:36:59;97188.22;;;15.73;91.36
50790;BME280;37287;47.554;7.844;2023-08-06T02:39:51;97182.31;;;15.74;90.45
50790;BME280;37287;47.554;7.844;2023-08-06T02:42:44;97186.91;;;15.77;90.44
50790;BME280;37287;47.554;7.844;2023-08-06T02:45:34;97183.38;;;15.80;90.07
50790;BME280;37287;47.554;7.844;2023-08-06T02:48:26;97197.44;;;15.79;91.01
50790;BME280;37287;47.554;7.844;2023-08-06T02:51:17;97181.84;;;15.79;90.75
50790;BME280;37287;47.554;7.844;2023-08-06T02:54:07;97189.25;;;15.79;90.70
50790;BME280;37287;47.554;7.844;2023-08-06T02:56:59;97199.81;;;15.77;91.96
50790;BME280;37287;47.554;7.844;2023-08-06T02:59:40;97191.63;;;15.77;91.52
50790;BME280;37287;47.554;7.844;2023-08-06T03:02:30;97218.91;;;15.77;91.86
50790;BME280;37287;47.554;7.844;2023-08-06T03:05:22;97225.28;;;15.54;92.64
50790;BME280;37287;47.554;7.844;2023-08-06T03:08:13;97246.81;;;15.32;93.27
50790;BME280;37287;47.554;7.844;2023-08-06T03:10:43;97243.50;;;15.04;94.07
50790;BME280;37287;47.554;7.844;2023-08-06T03:13:09;97255.09;;;14.88;94.32
50790;BME280;37287;47.554;7.844;2023-08-06T03:15:36;97266.34;;;14.70;95.02
50790;BME280;37287;47.554;7.844;2023-08-06T03:18:26;97280.66;;;14.50;95.79
50790;BME280;37287;47.554;7.844;2023-08-06T03:21:17;97274.72;;;14.35;96.74
50790;BME280;37287;47.554;7.844;2023-08-06T03:24:08;97277.59;;;14.24;97.86
50790;BME280;37287;47.554;7.844;2023-08-06T03:26:58;97281.44;;;14.03;100.00
50790;BME280;37287;47.554;7.844;2023-08-06T03:29:49;97296.13;;;13.82;100.00
50790;BME280;37287;47.554;7.844;2023-08-06T03:32:40;97300.00;;;13.57;100.00
50790;BME280;37287;47.554;7.844;2023-08-06T03:35:31;97303.00;;;13.32;100.00
50790;BME280;37287;47.554;7.844;2023-08-06T03:38:23;97317.19;;;13.16;100.00
50790;BME280;37287;47.554;7.844;2023-08-06T03:41:13;97314.59;;;13.02;100.00
50790;BME280;37287;47.554;7.844;2023-08-06T03:44:05;97317.47;;;12.87;100.00
50790;BME280;37287;47.554;7.844;2023-08-06T03:46:56;97322.25;;;12.76;100.00
50790;BME280;37287;47.554;7.844;2023-08-06T03:49:48;97327.00;;;12.68;100.00
50790;BME280;37287;47.554;7.844;2023-08-06T03:52:40;97323.16;;;12.62;100.00
50790;BME280;37287;47.554;7.844;2023-08-06T03:55:31;97321.66;;;12.58;100.00
50790;BME280;37287;47.554;7.844;2023-08-06T03:58:21;97330.97;;;12.56;100.00
50790;BME280;37287;47.554;7.844;2023-08-06T04:01:11;97331.78;;;12.53;100.00
50790;BME280;37287;47.554;7.844;2023-08-06T04:04:01;97334.09;;;12.55;100.00
50790;BME280;37287;47.554;7.844;2023-08-06T04:06:52;97334.13;;;12.51;100.00
50790;BME280;37287;47.554;7.844;2023-08-06T04:09:23;97333.34;;;12.51;100.00
50790;BME280;37287;47.554;7.844;2023-08-06T04:11:50;97332.53;;;12.54;100.00
50790;BME280;37287;47.554;7.844;2023-08-06T04:14:20;97335.63;;;12.56;100.00
50790;BME280;37287;47.554;7.844;2023-08-06T04:17:12;97335.69;;;12.49;100.00
50790;BME280;37287;47.554;7.844;2023-08-06T04:20:04;97342.69;;;12.50;100.00
50790;BME280;37287;47.554;7.844;2023-08-06T04:22:55;97343.03;;;12.52;100.00
50790;BME280;37287;47.554;7.844;2023-08-06T04:25:25;97327.50;;;12.56;100.00
50790;BME280;37287;47.554;7.844;2023-08-06T04:27:54;97333.34;;;12.51;100.00
50790;BME280;37287;47.554;7.844;2023-08-06T04:30:22;97334.16;;;12.48;100.00
50790;BME280;37287;47.554;7.844;2023-08-06T04:32:49;97329.88;;;12.47;100.00
50790;BME280;37287;47.554;7.844;2023-08-06T04:35:40;97330.28;;;12.49;100.00
50790;BME280;37287;47.554;7.844;2023-08-06T04:38:12;97341.91;;;12.49;100.00
50790;BME280;37287;47.554;7.844;2023-08-06T04:40:39;97338.00;;;12.50;100.00
50790;BME280;37287;47.554;7.844;2023-08-06T04:43:05;97351.59;;;12.50;100.00
50790;BME280;37287;47.554;7.844;2023-08-06T04:45:55;97350.84;;;12.46;100.00
50790;BME280;37287;47.554;7.844;2023-08-06T04:52:28;97352.00;;;12.45;100.00
50790;BME280;37287;47.554;7.844;2023-08-06T04:55:19;97346.97;;;12.44;100.00
50790;BME280;37287;47.554;7.844;2023-08-06T04:58:10;97347.38;;;12.46;100.00
50790;BME280;37287;47.554;7.844;2023-08-06T05:01:01;97344.28;;;12.44;100.00
50790;BME280;37287;47.554;7.844;2023-08-06T05:03:51;97335.38;;;12.43;100.00
50790;BME280;37287;47.554;7.844;2023-08-06T05:06:42;97344.28;;;12.44;100.00
50790;BME280;37287;47.554;7.844;2023-08-06T05:09:33;97343.88;;;12.45;100.00
50790;BME280;37287;47.554;7.844;2023-08-06T05:12:07;97337.28;;;12.46;100.00
50790;BME280;37287;47.554;7.844;2023-08-06T05:14:34;97348.13;;;12.46;100.00
50790;BME280;37287;47.554;7.844;2023-08-06T05:17:24;97346.19;;;12.47;100.00
50790;BME280;37287;47.554;7.844;2023-08-06T05:20:15;97329.13;;;12.46;100.00
50790;BME280;37287;47.554;7.844;2023-08-06T05:23:07;97341.13;;;12.49;100.00
50790;BME280;37287;47.554;7.844;2023-08-06T05:26:01;97338.81;;;12.47;100.00
50790;BME280;37287;47.554;7.844;2023-08-06T05:28:53;97339.59;;;12.48;100.00
50790;BME280;37287;47.554;7.844;2023-08-06T05:31:43;97343.44;;;12.50;100.00
50790;BME280;37287;47.554;7.844;2023-08-06T05:34:34;97345.78;;;12.48;100.00
50790;BME280;37287;47.554;7.844;2023-08-06T05:37:26;97348.88;;;12.50;100.00
50790;BME280;37287;47.554;7.844;2023-08-06T05:40:17;97339.56;;;12.51;100.00
50790;BME280;37287;47.554;7.844;2023-08-06T05:43:07;97354.66;;;12.52;100.00
50790;BME280;37287;47.554;7.844;2023-08-06T05:45:58;97354.66;;;12.56;100.00
50790;BME280;37287;47.554;7.844;2023-08-06T05:48:49;97356.56;;;12.59;100.00
50790;BME280;37287;47.554;7.844;2023-08-06T05:51:41;97355.75;;;12.62;100.00
50790;BME280;37287;47.554;7.844;2023-08-06T05:54:33;97354.56;;;12.67;100.00
50790;BME280;37287;47.554;7.844;2023-08-06T05:57:24;97358.38;;;12.73;100.00
50790;BME280;37287;47.554;7.844;2023-08-06T06:00:15;97371.16;;;12.76;100.00
50790;BME280;37287;47.554;7.844;2023-08-06T06:02:41;97366.13;;;12.75;100.00
50790;BME280;37287;47.554;7.844;2023-08-06T06:05:08;97373.50;;;12.74;100.00
50790;BME280;37287;47.554;7.844;2023-08-06T06:07:34;97369.59;;;12.75;100.00
50790;BME280;37287;47.554;7.844;2023-08-06T06:10:25;97371.16;;;12.76;100.00
50790;BME280;37287;47.554;7.844;2023-08-06T06:13:17;97372.69;;;12.77;100.00
50790;BME280;37287;47.554;7.844;2023-08-06T06:16:08;97386.69;;;12.76;100.00
50790;BME280;37287;47.554;7.844;2023-08-06T06:19:00;97390.16;;;12.76;100.00
50790;BME280;37287;47.554;7.844;2023-08-06T06:21:53;97392.88;;;12.76;100.00
50790;BME280;37287;47.554;7.844;2023-08-06T06:24:43;97386.69;;;12.76;100.00
50790;BME280;37287;47.554;7.844;2023-08-06T06:27:33;97389.41;;;12.76;100.00
50790;BME280;37287;47.554;7.844;2023-08-06T06:30:02;97390.91;;;12.77;100.00
50790;BME280;37287;47.554;7.844;2023-08-06T06:33:17;97389.00;;;12.77;100.00
50790;BME280;37287;47.554;7.844;2023-08-06T06:35:47;97389.00;;;12.77;100.00
50790;BME280;37287;47.554;7.844;2023-08-06T06:38:38;97395.59;;;12.76;100.00
50790;BME280;37287;47.554;7.844;2023-08-06T06:41:31;97394.44;;;12.77;100.00
50790;BME280;37287;47.554;7.844;2023-08-06T06:44:25;97393.63;;;12.77;100.00
50790;BME280;37287;47.554;7.844;2023-08-06T06:47:15;97393.69;;;12.73;100.00
50790;BME280;37287;47.554;7.844;2023-08-06T06:50:07;97399.13;;;12.73;100.00
50790;BME280;37287;47.554;7.844;2023-08-06T06:52:57;97400.66;;;12.74;100.00
50790;BME280;37287;47.554;7.844;2023-08-06T06:55:48;97390.97;;;12.73;100.00
50790;BME280;37287;47.554;7.844;2023-08-06T06:58:39;97397.94;;;12.74;100.00
50790;BME280;37287;47.554;7.844;2023-08-06T07:01:31;97400.66;;;12.74;100.00
50790;BME280;37287;47.554;7.844;2023-08-06T07:04:21;97396.75;;;12.75;100.00
50790;BME280;37287;47.554;7.844;2023-08-06T07:07:12;97410.34;;;12.75;100.00
50790;BME280;37287;47.554;7.844;2023-08-06T07:09:40;97415.78;;;12.75;100.00
50790;BME280;37287;47.554;7.844;2023-08-06T07:12:30;97416.97;;;12.74;100.00
50790;BME280;37287;47.554;7.844;2023-08-06T07:15:21;97411.56;;;12.70;100.00
50790;BME280;37287;47.554;7.844;2023-08-06T07:18:13;97420.53;;;12.64;100.00
50790;BME280;37287;47.554;7.844;2023-08-06T07:21:05;97425.59;;;12.58;100.00
50790;BME280;37287;47.554;7.844;2023-08-06T07:23:56;97423.34;;;12.53;100.00
50790;BME280;37287;47.554;7.844;2023-08-06T07:26:47;97428.78;;;12.49;100.00
50790;BME280;37287;47.554;7.844;2023-08-06T07:29:40;97429.59;;;12.46;100.00
50790;BME280;37287;47.554;7.844;2023-08-06T07:32:33;97426.53;;;12.41;100.00
50790;BME280;37287;47.554;7.844;2023-08-06T07:35:28;97431.19;;;12.36;100.00
50790;BME280;37287;47.554;7.844;2023-08-06T07:37:55;97435.88;;;12.36;100.00
50790;BME280;37287;47.554;7.844;2023-08-06T07:40:47;97440.50;;;12.35;100.00
50790;BME280;37287;47.554;7.844;2023-08-06T07:43:37;97448.66;;;12.35;100.00
50790;BME280;37287;47.554;7.844;2023-08-06T07:46:29;97444.00;;;12.36;100.00
50790;BME280;37287;47.554;7.844;2023-08-06T07:49:23;97452.50;;;12.38;100.00
50790;BME280;37287;47.554;7.844;2023-08-06T07:52:14;97456.38;;;12.37;100.00
50790;BME280;37287;47.554;7.844;2023-08-06T07:55:05;97452.50;;;12.38;100.00
50790;BME280;37287;47.554;7.844;2023-08-06T07:57:55;97468.41;;;12.39;100.00
50790;BME280;37287;47.554;7.844;2023-08-06T08:00:47;97463.38;;;12.38;100.00
50790;BME280;37287;47.554;7.844;2023-08-06T08:03:37;97455.22;;;12.42;100.00
50790;BME280;37287;47.554;7.844;2023-08-06T08:06:28;97461.41;;;12.46;100.00
50790;BME280;37287;47.554;7.844;2023-08-06T08:09:18;97467.19;;;12.51;100.00
50790;BME280;37287;47.554;7.844;2023-08-06T08:12:10;97462.09;;;12.57;100.00
50790;BME280;37287;47.554;7.844;2023-08-06T08:15:01;97462.03;;;12.64;100.00
50790;BME280;37287;47.554;7.844;2023-08-06T08:17:52;97464.31;;;12.69;100.00
50790;BME280;37287;47.554;7.844;2023-08-06T08:20:45;97476.34;;;12.72;100.00
50790;BME280;37287;47.554;7.844;2023-08-06T08:23:35;97480.59;;;12.73;100.00
50790;BME280;37287;47.554;7.844;2023-08-06T08:26:28;97472.81;;;12.75;100.00
50790;BME280;37287;47.554;7.844;2023-08-06T08:28:56;97460.44;;;12.74;100.00
50790;BME280;37287;47.554;7.844;2023-08-06T08:31:23;97475.16;;;12.73;100.00
50790;BME280;37287;47.554;7.844;2023-08-06T08:34:14;97477.13;;;12.72;100.00
50790;BME280;37287;47.554;7.844;2023-08-06T08:37:05;97472.81;;;12.75;100.00
50790;BME280;37287;47.554;7.844;2023-08-06T08:39:56;97480.94;;;12.79;100.00
50790;BME280;37287;47.554;7.844;2023-08-06T08:42:48;97475.88;;;12.81;100.00
50790;BME280;37287;47.554;7.844;2023-08-06T08:45:42;97481.28;;;12.84;100.00
50790;BME280;37287;47.554;7.844;2023-08-06T08:48:34;97492.09;;;12.92;100.00
50790;BME280;37287;47.554;7.844;2023-08-06T08:51:26;97496.72;;;12.95;100.00
50790;BME280;37287;47.554;7.844;2023-08-06T08:54:00;97502.16;;;12.95;100.00
50790;BME280;37287;47.554;7.844;2023-08-06T08:56:32;97501.41;;;12.90;100.00
50790;BME280;37287;47.554;7.844;2023-08-06T08:59:24;97497.59;;;12.88;100.00
50790;BME280;37287;47.554;7.844;2023-08-06T09:01:51;97500.66;;;12.86;100.00
50790;BME280;37287;47.554;7.844;2023-08-06T09:04:21;97509.22;;;12.85;100.00
50790;BME280;37287;47.554;7.844;2023-08-06T09:07:17;97526.72;;;12.84;100.00
50790;BME280;37287;47.554;7.844;2023-08-06T09:10:11;97517.78;;;12.83;100.00
50790;BME280;37287;47.554;7.844;2023-08-06T09:13:04;97534.47;;;12.82;100.00
50790;BME280;37287;47.554;7.844;2023-08-06T09:15:34;97533.72;;;12.78;100.00
50790;BME280;37287;47.554;7.844;2023-08-06T09:18:09;97531.06;;;12.70;100.00
50790;BME280;37287;47.554;7.844;2023-08-06T09:20:59;97529.56;;;12.62;100.00
50790;BME280;37287;47.554;7.844;2023-08-06T09:23:54;97528.44;;;12.56;100.00
50790;BME280;37287;47.554;7.844;2023-08-06T09:26:44;97535.06;;;12.51;100.00
50790;BME280;37287;47.554;7.844;2023-08-06T09:29:40;97538.53;;;12.48;100.00
50790;BME280;37287;47.554;7.844;2023-08-06T09:32:47;97531.59;;;12.47;100.00
50790;BME280;37287;47.554;7.844;2023-08-06T09:35:38;97539.75;;;12.47;100.00
50790;BME280;37287;47.554;7.844;2023-08-06T09:38:37;97545.16;;;12.47;100.00
50790;BME280;37287;47.554;7.844;2023-08-06T09:41:28;97547.47;;;12.49;100.00
50790;BME280;37287;47.554;7.844;2023-08-06T09:44:21;97553.28;;;12.51;100.00
50790;BME280;37287;47.554;7.844;2023-08-06T09:47:15;97545.94;;;12.51;100.00
50790;BME280;37287;47.554;7.844;2023-08-06T09:50:18;97553.28;;;12.51;100.00
50790;BME280;37287;47.554;7.844;2023-08-06T09:53:09;97562.22;;;12.51;100.00
50790;BME280;37287;47.554;7.844;2023-08-06T09:56:00;97562.22;;;12.51;100.00
50790;BME280;37287;47.554;7.844;2023-08-06T09:58:53;97562.22;;;12.51;100.00
50790;BME280;37287;47.554;7.844;2023-08-06T10:01:45;97567.25;;;12.49;100.00
50790;BME280;37287;47.554;7.844;2023-08-06T10:04:36;97572.28;;;12.51;100.00
50790;BME280;37287;47.554;7.844;2023-08-06T10:07:27;97573.84;;;12.52;100.00
50790;BME280;37287;47.554;7.844;2023-08-06T10:10:19;97568.38;;;12.59;100.00
50790;BME280;37287;47.554;7.844;2023-08-06T10:13:10;97573.78;;;12.63;100.00
50790;BME280;37287;47.554;7.844;2023-08-06T10:15:38;97581.50;;;12.68;100.00
50790;BME280;37287;47.554;7.844;2023-08-06T10:18:06;97584.19;;;12.75;100.00
50790;BME280;37287;47.554;7.844;2023-08-06T10:20:57;97580.66;;;12.82;100.00
50790;BME280;37287;47.554;7.844;2023-08-06T10:23:54;97594.59;;;12.87;100.00
50790;BME280;37287;47.554;7.844;2023-08-06T10:26:45;97580.56;;;12.96;100.00
50790;BME280;37287;47.554;7.844;2023-08-06T10:29:36;97579.28;;;13.15;100.00
50790;BME280;37287;47.554;7.844;2023-08-06T10:32:46;97592.41;;;13.28;100.00
50790;BME280;37287;47.554;7.844;2023-08-06T10:35:51;97592.34;;;13.31;100.00
50790;BME280;37287;47.554;7.844;2023-08-06T10:38:50;97589.69;;;13.28;100.00
50790;BME280;37287;47.554;7.844;2023-08-06T10:41:42;97580.78;;;13.23;100.00
50790;BME280;37287;47.554;7.844;2023-08-06T10:44:35;97599.84;;;13.16;100.00
50790;BME280;37287;47.554;7.844;2023-08-06T10:47:38;97596.41;;;13.08;100.00
50790;BME280;37287;47.554;7.844;2023-08-06T11:01:32;97594.63;;;12.80;100.00
50790;BME280;37287;47.554;7.844;2023-08-06T11:04:24;97604.75;;;12.76;100.00
50790;BME280;37287;47.554;7.844;2023-08-06T11:07:16;97601.66;;;12.74;100.00
50790;BME280;37287;47.554;7.844;2023-08-06T11:09:50;97609.06;;;12.70;100.00
50790;BME280;37287;47.554;7.844;2023-08-06T11:12:20;97606.34;;;12.66;100.00
50790;BME280;37287;47.554;7.844;2023-08-06T11:15:11;97619.56;;;12.64;100.00
50790;BME280;37287;47.554;7.844;2023-08-06T11:18:04;97609.47;;;12.65;100.00
50790;BME280;37287;47.554;7.844;2023-08-06T11:21:01;97612.56;;;12.67;100.00
50790;BME280;37287;47.554;7.844;2023-08-06T11:23:30;97626.13;;;12.70;100.00
50790;BME280;37287;47.554;7.844;2023-08-06T11:26:21;97628.44;;;12.72;100.00
50790;BME280;37287;47.554;7.844;2023-08-06T11:29:15;97637.75;;;12.75;100.00
50790;BME280;37287;47.554;7.844;2023-08-06T11:31:45;97623.41;;;12.74;100.00
50790;BME280;37287;47.554;7.844;2023-08-06T11:34:36;97615.25;;;12.74;100.00
50790;BME280;37287;47.554;7.844;2023-08-06T11:37:27;97631.16;;;12.76;100.00
50790;BME280;37287;47.554;7.844;2023-08-06T11:40:18;97631.91;;;12.76;100.00
50790;BME280;37287;47.554;7.844;2023-08-06T11:43:09;97635.00;;;12.82;100.00
50790;BME280;37287;47.554;7.844;2023-08-06T11:46:00;97641.94;;;12.86;100.00
50790;BME280;37287;47.554;7.844;2023-08-06T11:48:58;97639.59;;;12.92;100.00
50790;BME280;37287;47.554;7.844;2023-08-06T11:51:49;97642.69;;;12.94;100.00
50790;BME280;37287;47.554;7.844;2023-08-06T11:54:40;97644.63;;;12.97;100.00
50790;BME280;37287;47.554;7.844;2023-08-06T11:57:31;97640.69;;;13.02;100.00
50790;BME280;37287;47.554;7.844;2023-08-06T12:00:28;97642.97;;;13.14;100.00
50790;BME280;37287;47.554;7.844;2023-08-06T12:03:21;97638.97;;;13.30;100.00
50790;BME280;37287;47.554;7.844;2023-08-06T12:06:13;97642.78;;;13.47;100.00
50790;BME280;37287;47.554;7.844;2023-08-06T12:09:05;97633.69;;;13.64;100.00
50790;BME280;37287;47.554;7.844;2023-08-06T12:11:57;97636.28;;;13.79;100.00
50790;BME280;37287;47.554;7.844;2023-08-06T12:14:48;97646.31;;;13.89;100.00
50790;BME280;37287;47.554;7.844;2023-08-06T12:17:39;97651.69;;;13.92;100.00
50790;BME280;37287;47.554;7.844;2023-08-06T12:20:32;97645.13;;;13.90;100.00
50790;BME280;37287;47.554;7.844;2023-08-06T12:23:22;97647.13;;;13.86;100.00
50790;BME280;37287;47.554;7.844;2023-08-06T12:26:13;97674.78;;;13.77;100.00
50790;BME280;37287;47.554;7.844;2023-08-06T12:29:04;97646.91;;;13.66;100.00
50790;BME280;37287;47.554;7.844;2023-08-06T12:31:54;97663.69;;;13.53;100.00
50790;BME280;37287;47.554;7.844;2023-08-06T12:35:10;97662.56;;;13.47;100.00
50790;BME280;37287;47.554;7.844;2023-08-06T12:38:26;97681.25;;;13.41;100.00
50790;BME280;37287;47.554;7.844;2023-08-06T12:41:42;97665.41;;;13.25;100.00
50790;BME280;37287;47.554;7.844;2023-08-06T12:44:58;97670.13;;;13.14;100.00
50790;BME280;37287;47.554;7.844;2023-08-06T12:47:48;97679.84;;;13.15;100.00
50790;BME280;37287;47.554;7.844;2023-08-06T12:50:40;97680.59;;;13.19;100.00
50790;BME280;37287;47.554;7.844;2023-08-06T12:53:31;97675.97;;;13.16;100.00
50790;BME280;37287;47.554;7.844;2023-08-06T12:56:22;97684.09;;;13.20;100.00
50790;BME280;37287;47.554;7.844;2023-08-06T12:59:17;97675.13;;;13.27;100.00
50790;BME280;37287;47.554;7.844;2023-08-06T13:02:10;97680.50;;;13.41;100.00
50790;BME280;37287;47.554;7.844;2023-08-06T13:05:00;97658.25;;;13.53;100.00
50790;BME280;37287;47.554;7.844;2023-08-06T13:07:55;97671.00;;;13.64;100.00
50790;BME280;37287;47.554;7.844;2023-08-06T13:10:47;97674.47;;;13.68;100.00
50790;BME280;37287;47.554;7.844;2023-08-06T13:13:39;97685.38;;;13.64;100.00
50790;BME280;37287;47.554;7.844;2023-08-06T13:16:32;97690.59;;;13.40;100.00
50790;BME280;37287;47.554;7.844;2023-08-06T13:19:05;97692.59;;;13.25;100.00
50790;BME280;37287;47.554;7.844;2023-08-06T13:22:01;97694.69;;;13.00;100.00
50790;BME280;37287;47.554;7.844;2023-08-06T13:24:57;97693.22;;;12.77;100.00
50790;BME280;37287;47.554;7.844;2023-08-06T13:27:48;97692.13;;;12.56;100.00
50790;BME280;37287;47.554;7.844;2023-08-06T13:30:39;97698.00;;;12.44;100.00
50790;BME280;37287;47.554;7.844;2023-08-06T13:33:31;97706.13;;;12.37;100.00
50790;BME280;37287;47.554;7.844;2023-08-06T13:36:26;97710.81;;;12.36;100.00
50790;BME280;37287;47.554;7.844;2023-08-06T13:39:16;97694.91;;;12.46;100.00
50790;BME280;37287;47.554;7.844;2023-08-06T13:42:07;97703.72;;;12.68;100.00
50790;BME280;37287;47.554;7.844;2023-08-06T13:44:34;97703.28;;;12.87;100.00
50790;BME280;37287;47.554;7.844;2023-08-06T13:47:26;97676.78;;;13.10;100.00
50790;BME280;37287;47.554;7.844;2023-08-06T13:50:16;97691.78;;;13.32;100.00
50790;BME280;37287;47.554;7.844;2023-08-06T13:53:09;97686.63;;;13.52;100.00
50790;BME280;37287;47.554;7.844;2023-08-06T13:56:01;97691.53;;;13.72;100.00
50790;BME280;37287;47.554;7.844;2023-08-06T13:58:52;97689.50;;;13.83;100.00
50790;BME280;37287;47.554;7.844;2023-08-06T14:01:42;97695.59;;;13.98;100.00
50790;BME280;37287;47.554;7.844;2023-08-06T14:04:34;97700.59;;;14.07;100.00
50790;BME280;37287;47.554;7.844;2023-08-06T14:07:00;97701.69;;;14.13;100.00
50790;BME280;37287;47.554;7.844;2023-08-06T14:09:51;97709.38;;;14.22;100.00
50790;BME280;37287;47.554;7.844;2023-08-06T14:12:42;97714.88;;;14.18;100.00
50790;BME280;37287;47.554;7.844;2023-08-06T14:15:34;97721.50;;;14.14;100.00
50790;BME280;37287;47.554;7.844;2023-08-06T14:18:02;97716.47;;;14.12;100.00
50790;BME280;37287;47.554;7.844;2023-08-06T14:20:55;97714.53;;;14.13;100.00
50790;BME280;37287;47.554;7.844;2023-08-06T14:23:46;97722.31;;;14.10;100.00
50790;BME280;37287;47.554;7.844;2023-08-06T14:26:37;97723.88;;;14.08;100.00
50790;BME280;37287;47.554;7.844;2023-08-06T14:29:13;97724.28;;;14.06;100.00
50790;BME280;37287;47.554;7.844;2023-08-06T14:31:40;97733.66;;;14.05;100.00
50790;BME280;37287;47.554;7.844;2023-08-06T14:34:31;97723.53;;;14.02;100.00
50790;BME280;37287;47.554;7.844;2023-08-06T14:37:22;97737.56;;;14.01;100.00
50790;BME280;37287;47.554;7.844;2023-08-06T14:39:48;97750.75;;;14.02;100.00
50790;BME280;37287;47.554;7.844;2023-08-06T14:42:39;97745.38;;;13.99;100.00
50790;BME280;37287;47.554;7.844;2023-08-06T14:45:30;97746.91;;;14.00;100.00
50790;BME280;37287;47.554;7.844;2023-08-06T14:48:22;97746.13;;;14.03;100.00
50790;BME280;37287;47.554;7.844;2023-08-06T14:51:13;97744.91;;;14.07;100.00
50790;BME280;37287;47.554;7.844;2023-08-06T14:54:04;97754.56;;;14.12;100.00
50790;BME280;37287;47.554;7.844;2023-08-06T14:56:55;97754.91;;;14.21;100.00
50790;BME280;37287;47.554;7.844;2023-08-06T14:59:45;97744.69;;;14.33;100.00
50790;BME280;37287;47.554;7.844;2023-08-06T15:02:36;97741.06;;;14.43;100.00
50790;BME280;37287;47.554;7.844;2023-08-06T15:05:28;97743.78;;;14.43;100.00